Latest Weather Observations for Melbourne Airport

IDV60801

Issued at 12:02 pm EST Friday 27 May 2016 (issued every 30 minutes, with the page automatically refreshed every 10 minutes)

About weather observations | Map of weather stations | Latest weather observations for VIC | Other Formats
Station Details ID: 086282 Name: MELBOURNE AIRPORT Lat: -37.67 Lon: 144.83 Height: 113.4 m
Data from the previous 72 hours. | See also: Recent months at Melbourne Airport
Date/Time
EST
Temp
°C
App
Temp
°C
Dew
Point
Rel
Hum
%
Delta-T
°C
Wind Press
QNH
hPa
Press
MSL
hPa
Rain
since 9 am
mm
Dir
 
Spd
km/h
Gust
km/h
Spd
kts
Gust
kts
27/11:30am 13.0 8.4 6.3 64 3.2 WSW 20 30 11 16 1007.9 1007.9 0.0
27/11:00am 12.0 7.4 6.6 69 2.6 W 20 26 11 14 1008.1 1008.1 0.0
27/10:30am 12.0 7.7 6.8 70 2.5 WSW 19 24 10 13 1008.4 1008.4 0.0
27/10:00am 11.1 6.6 6.9 75 2.0 W 20 28 11 15 1008.4 1008.4 0.0
27/09:30am 10.0 5.6 6.4 78 1.7 W 19 24 10 13 1008.3 1008.3 0.0
27/09:00am 9.4 5.0 6.6 83 1.3 W 19 26 10 14 1008.1 1008.1 6.0
27/08:30am 8.7 4.2 5.9 82 1.3 W 19 26 10 14 1008.1 1008.1 6.0
27/08:00am 7.4 3.6 5.6 88 0.8 WNW 15 20 8 11 1007.9 1007.9 6.0
27/07:30am 6.2 1.9 5.1 93 0.5 WNW 17 26 9 14 1007.8 1007.8 6.0
27/07:00am 6.7 2.4 5.4 91 0.6 WNW 17 24 9 13 1007.7 1007.7 6.0
27/06:30am 7.4 3.2 5.6 88 0.8 W 17 19 9 10 1007.6 1007.6 6.0
27/06:00am 7.7 3.1 5.5 86 1.0 W 19 24 10 13 1007.4 1007.4 6.0
27/05:30am 7.9 4.1 5.7 86 1.0 W 15 19 8 10 1007.4 1007.4 6.0
27/05:00am 7.8 3.9 5.4 85 1.1 W 15 19 8 10 1007.4 1007.4 6.0
27/04:30am 7.8 3.8 5.1 83 1.2 W 15 20 8 11 1007.4 1007.4 6.0
27/04:00am 7.5 3.1 5.0 84 1.1 WNW 17 22 9 12 1007.3 1007.3 6.0
27/03:30am 7.5 3.2 5.3 86 1.0 W 17 20 9 11 1007.1 1007.1 6.0
27/03:00am 8.1 3.8 5.2 82 1.3 W 17 26 9 14 1007.2 1007.2 6.0
27/02:30am 7.6 2.7 5.1 84 1.1 W 20 26 11 14 1007.3 1007.3 6.0
27/02:00am 7.4 2.1 5.2 86 1.0 W 22 28 12 15 1007.3 1007.3 6.0
27/01:30am 7.7 3.4 5.3 85 1.1 W 17 20 9 11 1007.2 1007.2 6.0
27/01:00am 7.8 2.6 5.4 85 1.1 W 22 28 12 15 1007.2 1007.2 6.0
27/12:30am 7.8 2.9 5.1 83 1.2 W 20 28 11 15 1007.4 1007.4 6.0
27/12:00am 7.7 2.5 5.5 86 1.0 W 22 28 12 15 1007.5 1007.5 6.0
 
Date/Time
EST
Temp
°C
App
Temp
°C
Dew
Point
Rel
Hum
%
Delta-T
°C
Wind Press
QNH
hPa
Press
MSL
hPa
Rain
since 9 am
mm
Dir
 
Spd
km/h
Gust
km/h
Spd
kts
Gust
kts
26/11:30pm 8.0 3.2 5.8 86 1.0 W 20 26 11 14 1007.5 1007.5 6.0
26/11:00pm 8.5 3.0 5.9 84 1.2 W 24 30 13 16 1007.4 1007.4 6.0
26/10:30pm 8.3 3.6 5.9 85 1.1 W 20 28 11 15 1007.4 1007.4 6.0
26/10:00pm 8.4 3.3 6.0 85 1.1 W 22 28 12 15 1007.5 1007.5 6.0
26/09:30pm 8.2 3.5 6.0 86 1.0 W 20 24 11 13 1007.3 1007.3 6.0
26/09:00pm 8.1 4.0 6.4 89 0.8 WNW 17 22 9 12 1007.3 1007.3 6.0
26/08:30pm 8.1 4.1 6.6 90 0.7 W 17 19 9 10 1007.1 1007.1 6.0
26/08:00pm 8.5 4.2 6.8 89 0.8 W 19 30 10 16 1006.9 1006.9 6.0
26/07:30pm 9.6 4.7 7.1 84 1.2 W 22 28 12 15 1006.5 1006.5 6.0
26/07:00pm 9.9 6.1 7.6 85 1.1 WSW 17 22 9 12 1006.3 1006.3 6.0
26/06:30pm 9.6 7.6 8.6 93 0.5 SW 9 11 5 6 1006.1 1006.1 6.0
26/06:00pm 9.8 6.9 8.2 90 0.8 WSW 13 15 7 8 1005.6 1005.6 5.8
26/05:30pm 9.8 6.4 7.7 87 1.0 WSW 15 17 8 9 1005.2 1005.2 5.8
26/05:00pm 10.2 5.9 7.9 86 1.1 SW 20 30 11 16 1004.9 1004.9 5.8
26/04:30pm 10.4 6.4 8.4 87 1.0 WSW 19 28 10 15 1004.5 1004.5 5.8
26/04:00pm 10.3 5.0 8.5 89 0.9 WSW 26 35 14 19 1004.4 1004.4 5.8
26/03:30pm 10.5 6.8 9.3 92 0.6 WSW 19 24 10 13 1004.1 1004.1 5.6
26/03:00pm 10.4 6.5 9.6 95 0.4 WSW 20 26 11 14 1003.9 1003.9 5.6
26/02:30pm 10.7 7.0 9.5 92 0.6 WSW 19 26 10 14 1003.6 1003.6 5.4
26/02:00pm 10.8 7.1 9.6 92 0.6 SW 19 26 10 14 1003.5 1003.5 4.8
26/01:30pm 10.7 7.0 9.3 91 0.7 SW 19 26 10 14 1003.5 1003.5 4.8
26/01:00pm 11.0 7.8 10.0 93 0.5 SW 17 24 9 13 1003.4 1003.4 4.6
26/12:30pm 10.4 6.5 9.6 95 0.4 SSW 20 28 11 15 1003.5 1003.5 4.4
26/12:00pm 10.1 5.5 9.5 96 0.3 SSW 24 33 13 18 1003.4 1003.4 4.0
26/11:30am 10.7 7.2 10.3 97 0.2 SW 19 26 10 14 1003.4 1003.4 2.4
26/11:11am 10.7 8.3 9.9 95 0.4 W 13 17 7 9 1003.5 1003.5 1.6
26/11:00am 10.7 8.6 9.9 95 0.4 NW 11 13 6 7 1003.6 1003.6 1.0
26/10:46am 10.7 9.1 10.1 96 0.3 NW 9 13 5 7 1003.7 1003.7 0.8
26/10:30am 10.6 8.5 9.6 93 0.5 NNW 11 15 6 8 1003.8 1003.8 0.4
26/10:24am 10.6 8.8 9.4 92 0.6 NNW 9 15 5 8 1003.7 1003.7 0.4
26/10:14am 10.6 8.7 9.2 91 0.7 NNW 9 13 5 7 1003.7 1003.7 0.4
26/10:00am 10.5 7.9 9.3 92 0.6 N 13 17 7 9 1003.5 1003.5 0.4
26/09:37am 10.3 6.5 9.1 92 0.6 N 19 24 10 13 1003.4 1003.4 0.0
26/09:30am 10.2 6.4 9.2 93 0.5 N 19 24 10 13 1003.5 1003.5 0.0
26/09:17am 10.1 6.1 8.9 92 0.6 N 20 26 11 14 1003.5 1003.5 0.0
26/09:00am 9.9 5.4 8.7 92 0.6 N 22 28 12 15 1003.5 1003.5 11.4
26/08:43am 9.6 5.5 8.8 95 0.4 N 20 28 11 15 1003.5 1003.5 11.4
26/08:33am 9.7 5.6 8.7 93 0.5 N 20 26 11 14 1003.4 1003.4 11.2
26/08:30am 9.7 5.6 8.7 93 0.5 N 20 26 11 14 1003.4 1003.4 11.2
26/08:12am 9.5 5.0 8.7 95 0.4 N 22 26 12 14 1003.3 1003.3 11.0
26/08:00am 9.5 5.4 8.5 93 0.5 N 20 26 11 14 1003.3 1003.3 10.8
26/07:30am 9.4 4.5 8.6 95 0.4 N 24 33 13 18 1003.3 1003.3 10.0
26/07:00am 9.4 3.4 8.6 95 0.4 N 30 41 16 22 1003.3 1003.3 9.8
26/06:30am 9.7 3.2 8.3 91 0.7 N 32 41 17 22 1003.3 1003.3 9.8
26/06:00am 9.9 2.8 8.1 88 0.9 N 35 43 19 23 1003.5 1003.5 9.8
26/05:30am 10.0 2.5 7.9 87 1.0 N 37 48 20 26 1003.6 1003.6 9.8
26/05:00am 10.0 2.5 7.9 87 1.0 N 37 50 20 27 1003.7 1003.7 9.8
26/04:30am 10.0 2.1 7.9 87 1.0 N 39 50 21 27 1004.0 1004.0 9.8
26/04:00am 9.7 2.3 8.3 91 0.7 N 37 50 20 27 1004.1 1004.1 9.8
26/03:30am 9.9 2.7 7.8 87 1.0 N 35 44 19 24 1004.5 1004.5 9.8
26/03:00am 9.9 2.4 8.1 88 0.9 N 37 48 20 26 1004.7 1004.7 9.8
26/02:30am 9.8 3.1 8.2 90 0.8 N 33 44 18 24 1005.2 1005.2 9.8
26/02:00am 9.9 3.2 8.3 90 0.8 N 33 44 18 24 1005.5 1005.5 9.6
26/01:30am 10.2 3.1 7.9 86 1.1 N 35 44 19 24 1005.8 1005.8 9.4
26/01:00am 10.2 3.6 7.9 86 1.1 N 32 41 17 22 1006.2 1006.2 9.4
26/12:30am 10.1 2.3 8.1 87 1.0 N 39 50 21 27 1006.3 1006.3 9.4
26/12:00am 10.1 2.1 7.6 84 1.2 N 39 48 21 26 1006.8 1006.8 9.4
 
Date/Time
EST
Temp
°C
App
Temp
°C
Dew
Point
Rel
Hum
%
Delta-T
°C
Wind Press
QNH
hPa
Press
MSL
hPa
Rain
since 9 am
mm
Dir
 
Spd
km/h
Gust
km/h
Spd
kts
Gust
kts
25/11:47pm 10.0 0.7 7.7 86 1.1 N 46 65 25 35 1006.8 1006.8 9.0
25/11:38pm 10.3 1.9 7.4 82 1.4 N 41 65 22 35 1006.8 1006.8 9.0
25/11:36pm 10.1 2.9 7.8 86 1.1 N 35 61 19 33 1006.8 1006.8 9.0
25/11:30pm 10.3 4.5 7.8 84 1.2 N 28 39 15 21 1007.2 1007.2 9.0
25/11:00pm 10.2 3.6 8.4 89 0.9 N 33 50 18 27 1007.7 1007.7 7.6
25/10:30pm 10.3 4.6 8.3 87 1.0 N 28 37 15 20 1007.9 1007.9 6.4
25/10:20pm 10.2 4.6 8.6 90 0.8 N 28 52 15 28 1007.8 1007.8 6.0
25/10:00pm 10.8 5.4 7.9 82 1.4 N 26 37 14 20 1007.9 1007.9 5.0
25/09:30pm 10.9 6.8 8.5 85 1.2 N 20 30 11 16 1008.4 1008.4 5.0
25/09:05pm 11.2 5.5 8.2 82 1.5 N 28 46 15 25 1008.4 1008.4 5.0
25/09:00pm 11.1 4.6 8.3 83 1.4 N 32 44 17 24 1008.5 1008.5 5.0
25/08:55pm 11.1 3.3 8.3 83 1.4 N 39 57 21 31 1008.3 1008.3 5.0
25/08:46pm 11.1 3.2 8.0 81 1.5 N 39 54 21 29 1007.9 1007.9 5.0
25/08:30pm 10.9 2.4 8.5 85 1.2 N 43 56 23 30 1007.9 1007.9 5.0
25/08:25pm 11.0 2.5 8.4 84 1.3 N 43 56 23 30 1008.2 1008.2 4.8
25/08:01pm 11.0 5.0 8.8 86 1.1 N 30 48 16 26 1008.6 1008.6 4.0
25/08:00pm 11.1 5.5 8.7 85 1.2 N 28 39 15 21 1008.6 1008.6 4.0
25/07:32pm 11.1 4.2 8.9 86 1.1 N 35 54 19 29 1008.7 1008.7 2.8
25/07:30pm 11.1 3.5 8.9 86 1.1 N 39 54 21 29 1008.7 1008.7 2.6
25/07:00pm 11.8 3.9 7.7 76 2.0 N 39 50 21 27 1008.8 1008.8 2.4
25/06:30pm 12.0 3.2 7.3 73 2.3 N 43 63 23 34 1008.6 1008.6 2.4
25/06:26pm 12.1 3.3 7.2 72 2.4 N 43 63 23 34 1008.5 1008.5 2.4
25/06:00pm 12.2 4.5 7.0 70 2.5 N 37 50 20 27 1008.6 1008.6 2.4
25/05:30pm 12.3 4.1 6.7 68 2.7 N 39 54 21 29 1008.8 1008.8 2.4
25/05:00pm 12.5 4.3 6.5 67 2.9 N 39 50 21 27 1009.3 1009.3 2.4
25/04:30pm 12.7 3.9 7.4 70 2.6 N 43 56 23 30 1009.4 1009.4 2.4
25/04:00pm 13.0 6.4 7.7 70 2.6 N 32 54 17 29 1009.7 1009.7 2.4
25/03:30pm 12.2 6.8 9.5 83 1.4 NNE 28 35 15 19 1009.8 1009.8 2.4
25/03:00pm 12.2 6.7 9.2 82 1.5 N 28 37 15 20 1010.0 1010.0 1.6
25/02:30pm 11.8 5.3 9.0 83 1.4 N 33 44 18 24 1010.3 1010.3 1.2
25/02:00pm 11.6 3.2 8.8 83 1.4 N 43 52 23 28 1010.3 1010.3 0.4
25/01:30pm 12.4 5.7 8.0 74 2.2 N 33 46 18 25 1010.3 1010.3 0.0
25/01:00pm 13.3 4.3 6.5 63 3.3 N 43 54 23 29 1010.7 1010.7 0.0
25/12:30pm 13.0 5.7 7.0 67 2.9 N 35 48 19 26 1011.3 1011.3 0.0
25/12:00pm 13.9 7.4 6.7 62 3.5 N 30 41 16 22 1012.0 1012.0 0.0
25/11:30am 14.4 7.6 6.8 60 3.7 N 32 44 17 24 1012.5 1012.5 0.0
25/11:00am 14.9 7.7 7.7 62 3.6 N 35 54 19 29 1013.3 1013.3 0.0
25/10:30am 13.8 7.1 8.2 69 2.8 N 33 41 18 22 1013.8 1013.8 0.0
25/10:00am 12.7 5.6 8.1 73 2.3 NNE 35 43 19 23 1014.2 1014.2 0.0
25/09:30am 11.3 3.0 7.8 79 1.7 N 41 52 22 28 1014.4 1014.4 0.0
25/09:00am 11.2 2.5 7.5 78 1.8 N 43 52 23 28 1014.5 1014.5 0.0
25/08:30am 10.4 2.0 7.3 81 1.5 N 41 54 22 29 1014.6 1014.6 0.0
25/08:00am 10.5 2.4 7.2 80 1.6 N 39 48 21 26 1014.6 1014.6 0.0
25/07:30am 10.4 3.1 7.0 79 1.6 N 35 44 19 24 1014.7 1014.7 0.0
25/07:00am 10.4 3.4 6.8 78 1.7 N 33 43 18 23 1015.0 1015.0 0.0
25/06:30am 10.3 3.9 6.9 79 1.6 N 30 37 16 20 1015.1 1015.1 0.0
25/06:00am 10.2 3.3 6.4 77 1.8 N 32 39 17 21 1015.1 1015.1 0.0
25/05:30am 9.6 4.3 6.6 81 1.4 N 24 35 13 19 1015.2 1015.2 0.0
25/05:00am 10.1 3.4 5.8 74 2.0 N 30 35 16 19 1015.4 1015.4 0.0
25/04:30am 9.9 5.4 6.3 78 1.7 N 19 26 10 14 1015.4 1015.4 0.0
25/04:00am 9.1 4.3 5.8 80 1.5 N 20 28 11 15 1015.7 1015.7 0.0
25/03:30am 8.3 4.9 5.7 84 1.2 N 13 15 7 8 1016.3 1016.4 0.0
25/03:00am 8.5 4.6 5.4 81 1.4 N 15 20 8 11 1016.7 1016.8 0.0
25/02:30am 8.2 3.6 5.5 83 1.2 N 19 28 10 15 1016.6 1016.7 0.0
25/02:00am 7.3 2.6 5.3 87 0.9 N 19 24 10 13 1017.0 1017.1 0.0
25/01:30am 9.2 3.2 5.2 76 1.8 N 26 30 14 16 1017.4 1017.5 0.0
25/01:00am 8.5 2.5 5.4 81 1.4 N 26 28 14 15 1017.5 1017.6 0.0
25/12:30am 7.6 2.3 5.1 84 1.1 N 22 26 12 14 1017.7 1017.8 0.0
25/12:00am 8.9 3.6 5.1 77 1.7 N 22 26 12 14 1018.3 1018.3 0.0
 
Date/Time
EST
Temp
°C
App
Temp
°C
Dew
Point
Rel
Hum
%
Delta-T
°C
Wind Press
QNH
hPa
Press
MSL
hPa
Rain
since 9 am
mm
Dir
 
Spd
km/h
Gust
km/h
Spd
kts
Gust
kts
24/11:30pm 8.2 2.9 4.8 79 1.5 N 22 26 12 14 1018.2 1018.2 0.0
24/11:00pm 8.2 2.9 4.8 79 1.5 N 22 28 12 15 1018.3 1018.3 0.0
24/10:30pm 9.1 4.2 5.1 76 1.8 N 20 26 11 14 1018.6 1018.6 0.0
24/10:00pm 8.2 2.9 5.1 81 1.4 N 22 26 12 14 1019.0 1019.0 0.0
24/09:30pm 8.8 3.2 5.3 79 1.6 N 24 28 13 15 1019.4 1019.4 0.0
24/09:00pm 8.5 3.9 5.4 81 1.4 N 19 22 10 12 1020.0 1020.0 0.0
24/08:30pm 8.3 4.5 5.7 84 1.2 N 15 19 8 10 1020.1 1020.1 0.0
24/08:00pm 7.4 3.9 5.6 88 0.8 N 13 15 7 8 1020.1 1020.1 0.0
24/07:30pm 9.5 6.1 5.8 78 1.7 N 13 15 7 8 1020.0 1020.0 0.0
24/07:00pm 9.8 7.2 5.9 77 1.8 N 9 13 5 7 1020.0 1020.0 0.0
24/06:30pm 9.3 7.2 6.0 80 1.5 ESE 6 9 3 5 1019.9 1019.9 0.0
24/06:00pm 11.6 9.0 6.1 69 2.6 SSE 9 11 5 6 1019.6 1019.6 0.0
24/05:30pm 12.1 9.9 6.2 67 2.8 S 7 9 4 5 1019.3 1019.3 0.0
24/05:00pm 12.8 10.2 6.3 64 3.1 S 9 11 5 6 1019.3 1019.3 0.0
24/04:30pm 14.1 11.1 5.9 57 3.9 S 11 13 6 7 1019.5 1019.5 0.0
24/04:00pm 14.8 11.8 5.8 55 4.3 SSW 11 15 6 8 1019.4 1019.4 0.0
24/03:30pm 14.9 11.0 5.2 52 4.6 SW 15 20 8 11 1019.4 1019.4 0.0
24/03:00pm 15.5 11.6 5.5 51 4.8 SSW 15 20 8 11 1019.3 1019.3 0.0
24/02:30pm 14.6 10.6 4.8 52 4.6 SSW 15 26 8 14 1019.3 1019.3 0.0
24/02:00pm 14.8 10.4 5.0 52 4.6 WSW 17 26 9 14 1019.6 1019.6 0.0
24/01:30pm 15.4 11.0 4.5 48 5.1 SW 17 22 9 12 1019.7 1019.7 0.0
24/01:00pm 14.3 8.9 4.6 52 4.5 SW 22 32 12 17 1019.7 1019.7 0.0
24/12:30pm 13.8 8.2 5.5 57 3.9 WSW 24 32 13 17 1020.3 1020.3 0.0

Other Formats:

Comma delimited format used in spreadsheet applications
http://www.bom.gov.au/fwo/IDV60801/IDV60801.94866.axf

JavaScript Object Notation format (JSON) in row-major order
http://www.bom.gov.au/fwo/IDV60801/IDV60801.94866.json